<?xml version="1.0" encoding="UTF-8" standalone="no" ?>
<gpx xmlns="http://www.topografix.com/GPX/1/1" xmlns:xsi="http://www.w3.org/2001/XMLSchema-instance" xsi:schemaLocation="http://www.topografix.com/GPX/1/1 http://www.topografix.com/GPX/1/1/gpx.xsd" version="1.1" creator="VisuGPX - https://www.visugpx.com">
  <metadata>
    <name>Le Beaucet 5 juin 2019</name>
    <desc><![CDATA[Boucle de 9 km, dénivelé cumulé 200 m]]></desc>
  </metadata>
  <trk>
    <name><![CDATA[Le Beaucet 5 juin 2019]]></name>
    <trkseg>
      <trkpt lat="43.98273" lon="5.11577">
        <ele>236</ele>
        <time>2019-06-05T08:05:52Z</time>
      </trkpt>
      <trkpt lat="43.98251" lon="5.1134">
        <ele>277</ele>
        <time>2019-06-05T08:15:06Z</time>
      </trkpt>
      <trkpt lat="43.97871" lon="5.10924">
        <ele>302</ele>
        <time>2019-06-05T08:27:42Z</time>
      </trkpt>
      <trkpt lat="43.9781" lon="5.10866">
        <ele>272</ele>
        <time>2019-06-05T08:40:48Z</time>
      </trkpt>
      <trkpt lat="43.9729" lon="5.11235">
        <ele>327</ele>
        <time>2019-06-05T08:53:40Z</time>
      </trkpt>
      <trkpt lat="43.9698" lon="5.11448">
        <ele>362</ele>
        <time>2019-06-05T09:12:12Z</time>
      </trkpt>
      <trkpt lat="43.96791" lon="5.11633">
        <ele>364</ele>
        <time>2019-06-05T09:25:22Z</time>
      </trkpt>
      <trkpt lat="43.96909" lon="5.12193">
        <ele>351</ele>
        <time>2019-06-05T09:34:24Z</time>
      </trkpt>
      <trkpt lat="43.96842" lon="5.126">
        <ele>352</ele>
        <time>2019-06-05T09:45:15Z</time>
      </trkpt>
      <trkpt lat="43.96567" lon="5.12999">
        <ele>401</ele>
        <time>2019-06-05T09:55:21Z</time>
      </trkpt>
      <trkpt lat="43.96774" lon="5.12975">
        <ele>396</ele>
        <time>2019-06-05T10:09:03Z</time>
      </trkpt>
      <trkpt lat="43.96599" lon="5.13295">
        <ele>434</ele>
        <time>2019-06-05T10:14:34Z</time>
      </trkpt>
      <trkpt lat="43.96482" lon="5.13543">
        <ele>460</ele>
        <time>2019-06-05T11:28:05Z</time>
      </trkpt>
      <trkpt lat="43.96148" lon="5.13762">
        <ele>446</ele>
        <time>2019-06-05T11:36:38Z</time>
      </trkpt>
      <trkpt lat="43.96221" lon="5.14241">
        <ele>447</ele>
        <time>2019-06-05T11:47:37Z</time>
      </trkpt>
      <trkpt lat="43.96404" lon="5.14155">
        <ele>405</ele>
        <time>2019-06-05T11:55:54Z</time>
      </trkpt>
      <trkpt lat="43.96549" lon="5.13874">
        <ele>368</ele>
        <time>2019-06-05T12:04:31Z</time>
      </trkpt>
      <trkpt lat="43.9653" lon="5.1386">
        <ele>365</ele>
        <time>2019-06-05T12:12:24Z</time>
      </trkpt>
      <trkpt lat="43.96497" lon="5.14085">
        <ele>385</ele>
        <time>2019-06-05T12:26:00Z</time>
      </trkpt>
      <trkpt lat="43.9692" lon="5.13909">
        <ele>419</ele>
        <time>2019-06-05T12:36:52Z</time>
      </trkpt>
      <trkpt lat="43.97168" lon="5.13862">
        <ele>394</ele>
        <time>2019-06-05T12:48:45Z</time>
      </trkpt>
      <trkpt lat="43.97301" lon="5.13716">
        <ele>361</ele>
        <time>2019-06-05T12:56:01Z</time>
      </trkpt>
      <trkpt lat="43.97567" lon="5.1356">
        <ele>312</ele>
        <time>2019-06-05T13:00:38Z</time>
      </trkpt>
      <trkpt lat="43.97635" lon="5.13242">
        <ele>284</ele>
        <time>2019-06-05T13:05:19Z</time>
      </trkpt>
      <trkpt lat="43.97881" lon="5.13044">
        <ele>286</ele>
        <time>2019-06-05T13:11:34Z</time>
      </trkpt>
      <trkpt lat="43.97868" lon="5.12727">
        <ele>299</ele>
        <time>2019-06-05T13:16:17Z</time>
      </trkpt>
      <trkpt lat="43.97904" lon="5.12663">
        <ele>282</ele>
        <time>2019-06-05T13:24:21Z</time>
      </trkpt>
      <trkpt lat="43.98129" lon="5.1262">
        <ele>250</ele>
        <time>2019-06-05T13:30:46Z</time>
      </trkpt>
      <trkpt lat="43.98287" lon="5.12469">
        <ele>254</ele>
      </trkpt>
      <trkpt lat="43.98343" lon="5.12388">
        <ele>250</ele>
      </trkpt>
      <trkpt lat="43.98352" lon="5.12242">
        <ele>264</ele>
      </trkpt>
      <trkpt lat="43.9842" lon="5.12057">
        <ele>243</ele>
      </trkpt>
      <trkpt lat="43.9842" lon="5.11851">
        <ele>231</ele>
      </trkpt>
      <trkpt lat="43.98398" lon="5.11766">
        <ele>236</ele>
      </trkpt>
      <trkpt lat="43.98278" lon="5.11613">
        <ele>245.2</ele>
      </trkpt>
    </trkseg>
  </trk>
</gpx>